sensor_id;sensor_type;location;lat;lon;timestamp;P1;durP1;ratioP1;P2;durP2;ratioP2
47804;SDS011;33568;45.286;9.900;2023-03-01T00:00:00;37.80;;;24.48;;
47804;SDS011;33568;45.286;9.900;2023-03-01T00:02:26;38.28;;;22.85;;
47804;SDS011;33568;45.286;9.900;2023-03-01T00:05:11;34.95;;;24.33;;
47804;SDS011;33568;45.286;9.900;2023-03-01T00:07:38;32.13;;;24.83;;
47804;SDS011;33568;45.286;9.900;2023-03-01T00:10:04;34.67;;;25.17;;
47804;SDS011;33568;45.286;9.900;2023-03-01T00:12:31;37.67;;;25.95;;
47804;SDS011;33568;45.286;9.900;2023-03-01T00:17:42;32.22;;;23.80;;
47804;SDS011;33568;45.286;9.900;2023-03-01T00:20:09;29.55;;;24.38;;
47804;SDS011;33568;45.286;9.900;2023-03-01T00:22:36;37.63;;;23.85;;
47804;SDS011;33568;45.286;9.900;2023-03-01T00:25:04;32.72;;;23.98;;
47804;SDS011;33568;45.286;9.900;2023-03-01T00:29:57;39.15;;;24.67;;
47804;SDS011;33568;45.286;9.900;2023-03-01T00:32:41;33.38;;;25.00;;
47804;SDS011;33568;45.286;9.900;2023-03-01T00:35:26;35.83;;;24.00;;
47804;SDS011;33568;45.286;9.900;2023-03-01T00:37:52;41.13;;;25.33;;
47804;SDS011;33568;45.286;9.900;2023-03-01T00:40:42;38.03;;;24.90;;
47804;SDS011;33568;45.286;9.900;2023-03-01T00:45:36;32.75;;;24.52;;
47804;SDS011;33568;45.286;9.900;2023-03-01T00:48:02;41.75;;;26.20;;
47804;SDS011;33568;45.286;9.900;2023-03-01T00:50:29;39.30;;;26.38;;
47804;SDS011;33568;45.286;9.900;2023-03-01T00:52:55;34.65;;;25.83;;
47804;SDS011;33568;45.286;9.900;2023-03-01T00:55:22;32.45;;;25.30;;
47804;SDS011;33568;45.286;9.900;2023-03-01T00:58:07;34.67;;;25.08;;
47804;SDS011;33568;45.286;9.900;2023-03-01T01:00:34;31.67;;;25.45;;
47804;SDS011;33568;45.286;9.900;2023-03-01T01:03:00;32.38;;;26.27;;
47804;SDS011;33568;45.286;9.900;2023-03-01T01:05:26;51.13;;;25.17;;
47804;SDS011;33568;45.286;9.900;2023-03-01T01:07:53;45.22;;;25.52;;
47804;SDS011;33568;45.286;9.900;2023-03-01T01:10:19;34.10;;;26.40;;
47804;SDS011;33568;45.286;9.900;2023-03-01T01:13:04;38.92;;;25.13;;
47804;SDS011;33568;45.286;9.900;2023-03-01T01:15:34;50.28;;;26.58;;
47804;SDS011;33568;45.286;9.900;2023-03-01T01:18:01;32.38;;;25.88;;
47804;SDS011;33568;45.286;9.900;2023-03-01T01:20:46;34.70;;;26.33;;
47804;SDS011;33568;45.286;9.900;2023-03-01T01:23:12;33.35;;;25.30;;
47804;SDS011;33568;45.286;9.900;2023-03-01T01:25:38;36.28;;;24.98;;
47804;SDS011;33568;45.286;9.900;2023-03-01T01:28:05;35.67;;;26.02;;
47804;SDS011;33568;45.286;9.900;2023-03-01T01:30:31;31.95;;;25.33;;
47804;SDS011;33568;45.286;9.900;2023-03-01T01:33:16;36.17;;;24.38;;
47804;SDS011;33568;45.286;9.900;2023-03-01T01:35:44;39.80;;;25.88;;
47804;SDS011;33568;45.286;9.900;2023-03-01T01:38:11;32.20;;;24.55;;
47804;SDS011;33568;45.286;9.900;2023-03-01T01:40:46;42.40;;;25.35;;
47804;SDS011;33568;45.286;9.900;2023-03-01T01:43:16;36.28;;;25.30;;
47804;SDS011;33568;45.286;9.900;2023-03-01T01:45:49;42.15;;;25.95;;
47804;SDS011;33568;45.286;9.900;2023-03-01T01:48:17;31.77;;;24.05;;
47804;SDS011;33568;45.286;9.900;2023-03-01T01:50:49;39.45;;;25.10;;
47804;SDS011;33568;45.286;9.900;2023-03-01T01:53:40;33.05;;;24.98;;
47804;SDS011;33568;45.286;9.900;2023-03-01T01:56:10;36.47;;;25.08;;
47804;SDS011;33568;45.286;9.900;2023-03-01T01:58:39;29.98;;;24.17;;
47804;SDS011;33568;45.286;9.900;2023-03-01T02:01:07;39.33;;;24.83;;
47804;SDS011;33568;45.286;9.900;2023-03-01T02:03:34;36.83;;;23.23;;
47804;SDS011;33568;45.286;9.900;2023-03-01T02:11:38;34.67;;;23.83;;
47804;SDS011;33568;45.286;9.900;2023-03-01T02:16:31;41.83;;;23.20;;
47804;SDS011;33568;45.286;9.900;2023-03-01T02:18:58;34.58;;;25.42;;
47804;SDS011;33568;45.286;9.900;2023-03-01T02:21:37;32.33;;;24.65;;
47804;SDS011;33568;45.286;9.900;2023-03-01T02:26:58;43.42;;;24.73;;
47804;SDS011;33568;45.286;9.900;2023-03-01T02:29:26;39.22;;;25.30;;
47804;SDS011;33568;45.286;9.900;2023-03-01T02:31:54;37.15;;;25.27;;
47804;SDS011;33568;45.286;9.900;2023-03-01T02:34:25;35.22;;;25.40;;
47804;SDS011;33568;45.286;9.900;2023-03-01T02:36:56;38.55;;;25.45;;
47804;SDS011;33568;45.286;9.900;2023-03-01T02:39:27;35.30;;;25.45;;
47804;SDS011;33568;45.286;9.900;2023-03-01T02:42:22;40.65;;;26.38;;
47804;SDS011;33568;45.286;9.900;2023-03-01T02:44:52;36.30;;;24.13;;
47804;SDS011;33568;45.286;9.900;2023-03-01T02:47:19;38.10;;;26.02;;
47804;SDS011;33568;45.286;9.900;2023-03-01T02:49:46;36.97;;;25.17;;
47804;SDS011;33568;45.286;9.900;2023-03-01T02:54:53;38.30;;;25.85;;
47804;SDS011;33568;45.286;9.900;2023-03-01T02:57:23;34.67;;;25.77;;
47804;SDS011;33568;45.286;9.900;2023-03-01T02:59:54;34.17;;;25.65;;
47804;SDS011;33568;45.286;9.900;2023-03-01T03:02:24;39.80;;;26.15;;
47804;SDS011;33568;45.286;9.900;2023-03-01T03:05:10;33.47;;;25.88;;
47804;SDS011;33568;45.286;9.900;2023-03-01T03:07:39;39.75;;;26.70;;
47804;SDS011;33568;45.286;9.900;2023-03-01T03:10:08;37.25;;;28.80;;
47804;SDS011;33568;45.286;9.900;2023-03-01T03:13:02;39.97;;;28.27;;
47804;SDS011;33568;45.286;9.900;2023-03-01T03:15:34;38.35;;;28.52;;
47804;SDS011;33568;45.286;9.900;2023-03-01T03:18:02;40.40;;;26.98;;
47804;SDS011;33568;45.286;9.900;2023-03-01T03:20:49;44.47;;;31.10;;
47804;SDS011;33568;45.286;9.900;2023-03-01T03:23:21;50.80;;;31.38;;
47804;SDS011;33568;45.286;9.900;2023-03-01T03:26:06;52.75;;;31.50;;
47804;SDS011;33568;45.286;9.900;2023-03-01T03:28:33;49.25;;;32.45;;
47804;SDS011;33568;45.286;9.900;2023-03-01T03:31:00;44.65;;;30.20;;
47804;SDS011;33568;45.286;9.900;2023-03-01T03:33:30;42.65;;;30.67;;
47804;SDS011;33568;45.286;9.900;2023-03-01T03:41:28;38.45;;;28.23;;
47804;SDS011;33568;45.286;9.900;2023-03-01T03:43:55;40.53;;;27.58;;
47804;SDS011;33568;45.286;9.900;2023-03-01T03:46:40;41.03;;;29.33;;
47804;SDS011;33568;45.286;9.900;2023-03-01T03:49:06;43.60;;;29.35;;
47804;SDS011;33568;45.286;9.900;2023-03-01T03:51:51;43.17;;;28.90;;
47804;SDS011;33568;45.286;9.900;2023-03-01T03:54:36;39.08;;;27.42;;
47804;SDS011;33568;45.286;9.900;2023-03-01T03:57:02;44.95;;;28.48;;
47804;SDS011;33568;45.286;9.900;2023-03-01T04:00:07;41.15;;;27.75;;
47804;SDS011;33568;45.286;9.900;2023-03-01T04:02:41;41.40;;;27.88;;
47804;SDS011;33568;45.286;9.900;2023-03-01T04:05:09;40.05;;;30.33;;
47804;SDS011;33568;45.286;9.900;2023-03-01T04:07:55;38.40;;;28.60;;
47804;SDS011;33568;45.286;9.900;2023-03-01T04:11:02;43.22;;;29.55;;
47804;SDS011;33568;45.286;9.900;2023-03-01T04:13:49;40.75;;;29.15;;
47804;SDS011;33568;45.286;9.900;2023-03-01T04:16:16;43.90;;;30.27;;
47804;SDS011;33568;45.286;9.900;2023-03-01T04:18:43;53.17;;;33.78;;
47804;SDS011;33568;45.286;9.900;2023-03-01T04:21:10;41.95;;;32.00;;
47804;SDS011;33568;45.286;9.900;2023-03-01T04:24:14;56.25;;;35.50;;
47804;SDS011;33568;45.286;9.900;2023-03-01T04:26:40;55.85;;;35.78;;
47804;SDS011;33568;45.286;9.900;2023-03-01T04:29:06;47.90;;;33.90;;
47804;SDS011;33568;45.286;9.900;2023-03-01T04:31:51;57.15;;;35.78;;
47804;SDS011;33568;45.286;9.900;2023-03-01T04:34:18;55.40;;;35.90;;
47804;SDS011;33568;45.286;9.900;2023-03-01T04:36:45;51.42;;;35.33;;
47804;SDS011;33568;45.286;9.900;2023-03-01T04:39:11;49.88;;;35.13;;
47804;SDS011;33568;45.286;9.900;2023-03-01T04:41:40;52.83;;;35.97;;
47804;SDS011;33568;45.286;9.900;2023-03-01T04:44:07;49.78;;;34.70;;
47804;SDS011;33568;45.286;9.900;2023-03-01T04:46:35;44.30;;;32.00;;
47804;SDS011;33568;45.286;9.900;2023-03-01T04:49:02;52.78;;;33.20;;
47804;SDS011;33568;45.286;9.900;2023-03-01T04:51:47;52.97;;;34.20;;
47804;SDS011;33568;45.286;9.900;2023-03-01T04:56:59;42.10;;;32.33;;
47804;SDS011;33568;45.286;9.900;2023-03-01T04:59:26;42.33;;;30.65;;
47804;SDS011;33568;45.286;9.900;2023-03-01T05:04:23;43.50;;;30.88;;
47804;SDS011;33568;45.286;9.900;2023-03-01T05:06:50;45.20;;;32.10;;
47804;SDS011;33568;45.286;9.900;2023-03-01T05:14:28;38.78;;;28.58;;
47804;SDS011;33568;45.286;9.900;2023-03-01T05:16:54;39.35;;;27.25;;
47804;SDS011;33568;45.286;9.900;2023-03-01T05:22:08;40.45;;;29.58;;
47804;SDS011;33568;45.286;9.900;2023-03-01T05:24:34;43.13;;;27.02;;
47804;SDS011;33568;45.286;9.900;2023-03-01T05:27:01;44.47;;;27.95;;
47804;SDS011;33568;45.286;9.900;2023-03-01T05:29:29;41.88;;;27.70;;
47804;SDS011;33568;45.286;9.900;2023-03-01T05:32:15;36.20;;;26.47;;
47804;SDS011;33568;45.286;9.900;2023-03-01T05:34:42;41.65;;;30.98;;
47804;SDS011;33568;45.286;9.900;2023-03-01T05:37:27;38.78;;;28.88;;
47804;SDS011;33568;45.286;9.900;2023-03-01T05:40:12;37.22;;;27.98;;
47804;SDS011;33568;45.286;9.900;2023-03-01T05:43:02;33.30;;;25.63;;
47804;SDS011;33568;45.286;9.900;2023-03-01T05:45:31;36.78;;;26.63;;
47804;SDS011;33568;45.286;9.900;2023-03-01T05:48:01;38.35;;;27.08;;
47804;SDS011;33568;45.286;9.900;2023-03-01T05:52:58;38.70;;;27.65;;
47804;SDS011;33568;45.286;9.900;2023-03-01T05:55:52;34.25;;;26.75;;
47804;SDS011;33568;45.286;9.900;2023-03-01T06:00:46;46.75;;;26.88;;
47804;SDS011;33568;45.286;9.900;2023-03-01T06:03:14;40.08;;;28.35;;
47804;SDS011;33568;45.286;9.900;2023-03-01T06:05:42;38.50;;;27.80;;
47804;SDS011;33568;45.286;9.900;2023-03-01T06:10:35;43.92;;;26.67;;
47804;SDS011;33568;45.286;9.900;2023-03-01T06:13:20;43.40;;;27.95;;
47804;SDS011;33568;45.286;9.900;2023-03-01T06:15:48;41.38;;;28.33;;
47804;SDS011;33568;45.286;9.900;2023-03-01T06:18:15;41.05;;;28.10;;
47804;SDS011;33568;45.286;9.900;2023-03-01T06:20:41;41.97;;;29.13;;
47804;SDS011;33568;45.286;9.900;2023-03-01T06:23:07;45.97;;;29.75;;
47804;SDS011;33568;45.286;9.900;2023-03-01T06:25:34;40.55;;;28.52;;
47804;SDS011;33568;45.286;9.900;2023-03-01T06:28:00;46.50;;;29.60;;
47804;SDS011;33568;45.286;9.900;2023-03-01T06:30:27;39.42;;;26.20;;
47804;SDS011;33568;45.286;9.900;2023-03-01T06:33:11;39.03;;;27.48;;
47804;SDS011;33568;45.286;9.900;2023-03-01T06:35:57;42.85;;;27.58;;
47804;SDS011;33568;45.286;9.900;2023-03-01T06:38:42;50.25;;;28.55;;
47804;SDS011;33568;45.286;9.900;2023-03-01T06:41:08;39.33;;;27.35;;
47804;SDS011;33568;45.286;9.900;2023-03-01T06:43:35;39.83;;;28.63;;
47804;SDS011;33568;45.286;9.900;2023-03-01T06:48:32;37.53;;;25.60;;
47804;SDS011;33568;45.286;9.900;2023-03-01T06:51:00;42.15;;;26.33;;
47804;SDS011;33568;45.286;9.900;2023-03-01T06:53:27;47.08;;;27.17;;
47804;SDS011;33568;45.286;9.900;2023-03-01T06:55:55;54.40;;;27.88;;
47804;SDS011;33568;45.286;9.900;2023-03-01T06:58:22;49.78;;;27.45;;
47804;SDS011;33568;45.286;9.900;2023-03-01T07:03:34;42.83;;;26.98;;
47804;SDS011;33568;45.286;9.900;2023-03-01T07:06:01;39.20;;;25.98;;
47804;SDS011;33568;45.286;9.900;2023-03-01T07:10:54;38.97;;;24.77;;
47804;SDS011;33568;45.286;9.900;2023-03-01T07:13:24;34.83;;;25.17;;
47804;SDS011;33568;45.286;9.900;2023-03-01T07:15:51;37.05;;;24.45;;
47804;SDS011;33568;45.286;9.900;2023-03-01T07:20:44;34.65;;;24.63;;
47804;SDS011;33568;45.286;9.900;2023-03-01T07:23:10;34.08;;;24.48;;
47804;SDS011;33568;45.286;9.900;2023-03-01T07:25:36;42.50;;;25.75;;
47804;SDS011;33568;45.286;9.900;2023-03-01T07:28:24;35.42;;;24.90;;
47804;SDS011;33568;45.286;9.900;2023-03-01T07:30:51;35.38;;;25.55;;
47804;SDS011;33568;45.286;9.900;2023-03-01T07:36:03;32.33;;;23.45;;
47804;SDS011;33568;45.286;9.900;2023-03-01T07:38:30;30.02;;;22.88;;
47804;SDS011;33568;45.286;9.900;2023-03-01T07:41:15;34.20;;;23.77;;
47804;SDS011;33568;45.286;9.900;2023-03-01T07:46:27;35.35;;;22.60;;
47804;SDS011;33568;45.286;9.900;2023-03-01T07:52:34;30.83;;;20.77;;
47804;SDS011;33568;45.286;9.900;2023-03-01T07:55:19;40.40;;;22.83;;
47804;SDS011;33568;45.286;9.900;2023-03-01T07:57:46;30.02;;;23.27;;
47804;SDS011;33568;45.286;9.900;2023-03-01T08:05:42;37.67;;;23.35;;
47804;SDS011;33568;45.286;9.900;2023-03-01T08:11:13;35.78;;;23.05;;
47804;SDS011;33568;45.286;9.900;2023-03-01T08:16:26;29.77;;;22.80;;
47804;SDS011;33568;45.286;9.900;2023-03-01T08:18:52;30.25;;;21.15;;
47804;SDS011;33568;45.286;9.900;2023-03-01T08:21:40;29.98;;;20.85;;
47804;SDS011;33568;45.286;9.900;2023-03-01T08:24:07;30.80;;;20.88;;
47804;SDS011;33568;45.286;9.900;2023-03-01T08:27:11;29.50;;;20.67;;
47804;SDS011;33568;45.286;9.900;2023-03-01T08:29:39;27.40;;;19.83;;
47804;SDS011;33568;45.286;9.900;2023-03-01T08:32:05;34.30;;;21.30;;
47804;SDS011;33568;45.286;9.900;2023-03-01T08:34:32;33.47;;;21.55;;
47804;SDS011;33568;45.286;9.900;2023-03-01T08:37:16;26.40;;;20.15;;
47804;SDS011;33568;45.286;9.900;2023-03-01T08:39:43;29.30;;;18.58;;
47804;SDS011;33568;45.286;9.900;2023-03-01T08:42:09;24.83;;;18.92;;
47804;SDS011;33568;45.286;9.900;2023-03-01T08:47:02;27.30;;;17.45;;
47804;SDS011;33568;45.286;9.900;2023-03-01T08:49:30;28.15;;;18.70;;
47804;SDS011;33568;45.286;9.900;2023-03-01T08:51:58;27.70;;;17.83;;
47804;SDS011;33568;45.286;9.900;2023-03-01T08:54:25;25.77;;;18.00;;
47804;SDS011;33568;45.286;9.900;2023-03-01T08:56:51;27.38;;;17.92;;
47804;SDS011;33568;45.286;9.900;2023-03-01T08:59:17;23.00;;;17.35;;
47804;SDS011;33568;45.286;9.900;2023-03-01T09:01:44;24.83;;;17.33;;
47804;SDS011;33568;45.286;9.900;2023-03-01T09:04:29;21.65;;;15.38;;
47804;SDS011;33568;45.286;9.900;2023-03-01T09:06:55;33.03;;;22.10;;
47804;SDS011;33568;45.286;9.900;2023-03-01T09:09:22;22.77;;;17.00;;
47804;SDS011;33568;45.286;9.900;2023-03-01T09:11:48;25.42;;;18.63;;
47804;SDS011;33568;45.286;9.900;2023-03-01T09:14:52;25.63;;;17.73;;
47804;SDS011;33568;45.286;9.900;2023-03-01T09:19:47;25.33;;;17.17;;
47804;SDS011;33568;45.286;9.900;2023-03-01T09:22:14;23.15;;;16.67;;
47804;SDS011;33568;45.286;9.900;2023-03-01T09:24:40;23.00;;;15.77;;
47804;SDS011;33568;45.286;9.900;2023-03-01T09:27:06;25.63;;;16.55;;
47804;SDS011;33568;45.286;9.900;2023-03-01T09:29:51;20.48;;;15.70;;
47804;SDS011;33568;45.286;9.900;2023-03-01T09:32:36;22.42;;;16.55;;
47804;SDS011;33568;45.286;9.900;2023-03-01T09:35:03;19.40;;;15.98;;
47804;SDS011;33568;45.286;9.900;2023-03-01T09:37:31;23.55;;;15.90;;
47804;SDS011;33568;45.286;9.900;2023-03-01T09:40:19;22.65;;;16.75;;
47804;SDS011;33568;45.286;9.900;2023-03-01T09:43:01;30.58;;;17.20;;
47804;SDS011;33568;45.286;9.900;2023-03-01T09:45:34;26.40;;;17.25;;
47804;SDS011;33568;45.286;9.900;2023-03-01T09:48:04;30.52;;;16.70;;
47804;SDS011;33568;45.286;9.900;2023-03-01T09:50:51;24.05;;;16.30;;
47804;SDS011;33568;45.286;9.900;2023-03-01T09:53:20;22.33;;;17.17;;
47804;SDS011;33568;45.286;9.900;2023-03-01T09:55:59;22.63;;;17.10;;
47804;SDS011;33568;45.286;9.900;2023-03-01T10:00:56;28.38;;;17.30;;
47804;SDS011;33568;45.286;9.900;2023-03-01T10:03:38;22.15;;;16.90;;
47804;SDS011;33568;45.286;9.900;2023-03-01T10:06:12;23.90;;;15.50;;
47804;SDS011;33568;45.286;9.900;2023-03-01T10:09:10;20.85;;;14.68;;
47804;SDS011;33568;45.286;9.900;2023-03-01T10:11:58;23.85;;;15.90;;
47804;SDS011;33568;45.286;9.900;2023-03-01T10:19:48;22.15;;;16.33;;
47804;SDS011;33568;45.286;9.900;2023-03-01T10:24:47;27.38;;;16.17;;
47804;SDS011;33568;45.286;9.900;2023-03-01T10:28:00;24.05;;;16.17;;
47804;SDS011;33568;45.286;9.900;2023-03-01T10:32:37;21.13;;;15.70;;
47804;SDS011;33568;45.286;9.900;2023-03-01T10:35:21;19.48;;;15.60;;
47804;SDS011;33568;45.286;9.900;2023-03-01T10:38:03;23.83;;;16.90;;
47804;SDS011;33568;45.286;9.900;2023-03-01T10:40:32;20.85;;;15.07;;
47804;SDS011;33568;45.286;9.900;2023-03-01T10:43:01;22.33;;;16.95;;
47804;SDS011;33568;45.286;9.900;2023-03-01T10:50:48;22.60;;;17.75;;
47804;SDS011;33568;45.286;9.900;2023-03-01T10:53:31;19.25;;;15.23;;
47804;SDS011;33568;45.286;9.900;2023-03-01T10:56:04;25.67;;;19.15;;
47804;SDS011;33568;45.286;9.900;2023-03-01T10:58:40;21.20;;;15.98;;
47804;SDS011;33568;45.286;9.900;2023-03-01T11:04:03;19.70;;;16.00;;
47804;SDS011;33568;45.286;9.900;2023-03-01T11:06:32;25.30;;;16.75;;
47804;SDS011;33568;45.286;9.900;2023-03-01T11:09:19;29.02;;;17.20;;
47804;SDS011;33568;45.286;9.900;2023-03-01T11:11:53;22.77;;;17.13;;
47804;SDS011;33568;45.286;9.900;2023-03-01T11:14:27;22.38;;;16.42;;
47804;SDS011;33568;45.286;9.900;2023-03-01T11:17:04;22.88;;;15.93;;
47804;SDS011;33568;45.286;9.900;2023-03-01T11:19:43;19.17;;;15.70;;
47804;SDS011;33568;45.286;9.900;2023-03-01T11:22:32;19.95;;;15.40;;
47804;SDS011;33568;45.286;9.900;2023-03-01T11:25:19;21.70;;;16.38;;
47804;SDS011;33568;45.286;9.900;2023-03-01T11:27:53;22.40;;;17.17;;
47804;SDS011;33568;45.286;9.900;2023-03-01T11:35:24;21.97;;;16.40;;
47804;SDS011;33568;45.286;9.900;2023-03-01T11:40:49;22.55;;;15.77;;
47804;SDS011;33568;45.286;9.900;2023-03-01T11:48:51;24.23;;;16.88;;
47804;SDS011;33568;45.286;9.900;2023-03-01T11:57:06;25.02;;;17.30;;
47804;SDS011;33568;45.286;9.900;2023-03-01T12:00:42;21.27;;;17.35;;
47804;SDS011;33568;45.286;9.900;2023-03-01T12:09:11;27.17;;;18.08;;
47804;SDS011;33568;45.286;9.900;2023-03-01T12:15:19;25.02;;;17.30;;
47804;SDS011;33568;45.286;9.900;2023-03-01T12:26:18;28.13;;;17.20;;
47804;SDS011;33568;45.286;9.900;2023-03-01T12:29:26;32.38;;;19.77;;
47804;SDS011;33568;45.286;9.900;2023-03-01T12:37:36;25.08;;;18.45;;
47804;SDS011;33568;45.286;9.900;2023-03-01T12:43:44;25.27;;;19.75;;
47804;SDS011;33568;45.286;9.900;2023-03-01T12:47:11;26.58;;;18.25;;
47804;SDS011;33568;45.286;9.900;2023-03-01T12:49:33;31.13;;;19.83;;
47804;SDS011;33568;45.286;9.900;2023-03-01T12:52:50;23.05;;;19.30;;
47804;SDS011;33568;45.286;9.900;2023-03-01T12:55:36;25.80;;;19.35;;
47804;SDS011;33568;45.286;9.900;2023-03-01T12:58:26;31.98;;;21.58;;
47804;SDS011;33568;45.286;9.900;2023-03-01T13:07:29;27.05;;;21.90;;
47804;SDS011;33568;45.286;9.900;2023-03-01T13:13:22;30.10;;;20.10;;
47804;SDS011;33568;45.286;9.900;2023-03-01T13:16:20;22.50;;;18.70;;
47804;SDS011;33568;45.286;9.900;2023-03-01T13:19:06;27.48;;;21.23;;
47804;SDS011;33568;45.286;9.900;2023-03-01T13:21:40;23.20;;;20.63;;
47804;SDS011;33568;45.286;9.900;2023-03-01T13:24:26;32.92;;;19.85;;
47804;SDS011;33568;45.286;9.900;2023-03-01T13:27:22;32.80;;;20.45;;
47804;SDS011;33568;45.286;9.900;2023-03-01T13:29:55;24.27;;;20.23;;
47804;SDS011;33568;45.286;9.900;2023-03-01T13:32:32;27.20;;;20.58;;
47804;SDS011;33568;45.286;9.900;2023-03-01T13:41:15;27.17;;;18.20;;
47804;SDS011;33568;45.286;9.900;2023-03-01T13:44:02;30.65;;;21.52;;
47804;SDS011;33568;45.286;9.900;2023-03-01T13:46:50;28.58;;;20.52;;
47804;SDS011;33568;45.286;9.900;2023-03-01T13:49:43;22.08;;;18.85;;
47804;SDS011;33568;45.286;9.900;2023-03-01T13:57:41;23.23;;;19.75;;
47804;SDS011;33568;45.286;9.900;2023-03-01T14:05:39;27.25;;;21.23;;
47804;SDS011;33568;45.286;9.900;2023-03-01T14:08:21;27.13;;;22.70;;
47804;SDS011;33568;45.286;9.900;2023-03-01T14:10:54;34.50;;;22.10;;
47804;SDS011;33568;45.286;9.900;2023-03-01T14:13:26;38.22;;;30.27;;
47804;SDS011;33568;45.286;9.900;2023-03-01T14:21:17;32.55;;;22.45;;
47804;SDS011;33568;45.286;9.900;2023-03-01T14:23:44;30.90;;;21.27;;
47804;SDS011;33568;45.286;9.900;2023-03-01T14:26:12;39.50;;;22.08;;
47804;SDS011;33568;45.286;9.900;2023-03-01T14:34:05;27.92;;;20.30;;
47804;SDS011;33568;45.286;9.900;2023-03-01T14:36:50;26.92;;;20.63;;
47804;SDS011;33568;45.286;9.900;2023-03-01T14:39:23;28.17;;;21.15;;
47804;SDS011;33568;45.286;9.900;2023-03-01T14:41:52;24.13;;;20.67;;
47804;SDS011;33568;45.286;9.900;2023-03-01T14:44:22;25.67;;;19.80;;
47804;SDS011;33568;45.286;9.900;2023-03-01T14:46:54;26.52;;;19.77;;
47804;SDS011;33568;45.286;9.900;2023-03-01T14:49:23;34.63;;;28.08;;
47804;SDS011;33568;45.286;9.900;2023-03-01T14:52:21;23.90;;;19.00;;
47804;SDS011;33568;45.286;9.900;2023-03-01T14:54:51;28.70;;;20.25;;
47804;SDS011;33568;45.286;9.900;2023-03-01T15:00:07;29.63;;;19.87;;
47804;SDS011;33568;45.286;9.900;2023-03-01T15:02:34;23.67;;;17.73;;
47804;SDS011;33568;45.286;9.900;2023-03-01T15:05:03;32.05;;;20.25;;
47804;SDS011;33568;45.286;9.900;2023-03-01T15:07:31;24.35;;;19.80;;
47804;SDS011;33568;45.286;9.900;2023-03-01T15:10:01;28.05;;;18.10;;
47804;SDS011;33568;45.286;9.900;2023-03-01T15:12:37;39.85;;;20.17;;
47804;SDS011;33568;45.286;9.900;2023-03-01T15:17:52;31.58;;;22.30;;
47804;SDS011;33568;45.286;9.900;2023-03-01T15:20:41;30.67;;;20.48;;
47804;SDS011;33568;45.286;9.900;2023-03-01T15:23:19;28.50;;;19.23;;
47804;SDS011;33568;45.286;9.900;2023-03-01T15:25:50;28.17;;;19.40;;
47804;SDS011;33568;45.286;9.900;2023-03-01T15:28:26;26.17;;;21.30;;
47804;SDS011;33568;45.286;9.900;2023-03-01T15:31:18;31.90;;;21.15;;
47804;SDS011;33568;45.286;9.900;2023-03-01T15:33:50;28.52;;;20.98;;
47804;SDS011;33568;45.286;9.900;2023-03-01T15:36:38;32.42;;;21.75;;
47804;SDS011;33568;45.286;9.900;2023-03-01T15:45:37;31.45;;;23.98;;
47804;SDS011;33568;45.286;9.900;2023-03-01T15:48:34;33.35;;;22.33;;
47804;SDS011;33568;45.286;9.900;2023-03-01T15:51:01;30.38;;;23.02;;
47804;SDS011;33568;45.286;9.900;2023-03-01T15:55:53;34.20;;;23.83;;
47804;SDS011;33568;45.286;9.900;2023-03-01T15:58:21;35.67;;;23.38;;
47804;SDS011;33568;45.286;9.900;2023-03-01T16:00:49;31.88;;;23.13;;
47804;SDS011;33568;45.286;9.900;2023-03-01T16:03:22;32.42;;;23.00;;
47804;SDS011;33568;45.286;9.900;2023-03-01T16:06:08;28.55;;;23.02;;
47804;SDS011;33568;45.286;9.900;2023-03-01T16:08:36;33.72;;;22.95;;
47804;SDS011;33568;45.286;9.900;2023-03-01T16:11:12;36.25;;;23.98;;
47804;SDS011;33568;45.286;9.900;2023-03-01T16:13:41;37.80;;;27.95;;
47804;SDS011;33568;45.286;9.900;2023-03-01T16:16:26;39.80;;;29.05;;
47804;SDS011;33568;45.286;9.900;2023-03-01T16:18:52;49.55;;;38.47;;
47804;SDS011;33568;45.286;9.900;2023-03-01T16:21:56;31.67;;;24.48;;
47804;SDS011;33568;45.286;9.900;2023-03-01T16:24:41;39.83;;;25.60;;
47804;SDS011;33568;45.286;9.900;2023-03-01T16:29:53;29.88;;;23.23;;
47804;SDS011;33568;45.286;9.900;2023-03-01T16:32:19;46.97;;;27.50;;
47804;SDS011;33568;45.286;9.900;2023-03-01T16:34:46;35.13;;;25.40;;
47804;SDS011;33568;45.286;9.900;2023-03-01T16:37:15;35.83;;;26.27;;
47804;SDS011;33568;45.286;9.900;2023-03-01T16:39:41;34.15;;;24.30;;
47804;SDS011;33568;45.286;9.900;2023-03-01T16:44:55;30.23;;;22.27;;
47804;SDS011;33568;45.286;9.900;2023-03-01T16:47:22;29.77;;;25.05;;
47804;SDS011;33568;45.286;9.900;2023-03-01T16:49:52;34.22;;;23.65;;
47804;SDS011;33568;45.286;9.900;2023-03-01T16:52:19;38.03;;;25.08;;
47804;SDS011;33568;45.286;9.900;2023-03-01T16:54:46;36.35;;;25.17;;
47804;SDS011;33568;45.286;9.900;2023-03-01T16:59:39;30.70;;;23.48;;
47804;SDS011;33568;45.286;9.900;2023-03-01T17:02:08;44.50;;;29.52;;
47804;SDS011;33568;45.286;9.900;2023-03-01T17:04:38;37.38;;;27.55;;
47804;SDS011;33568;45.286;9.900;2023-03-01T17:07:05;37.13;;;25.67;;
47804;SDS011;33568;45.286;9.900;2023-03-01T17:09:36;33.80;;;25.70;;
47804;SDS011;33568;45.286;9.900;2023-03-01T17:12:03;29.23;;;22.30;;
47804;SDS011;33568;45.286;9.900;2023-03-01T17:14:30;28.73;;;24.02;;
47804;SDS011;33568;45.286;9.900;2023-03-01T17:16:56;28.73;;;22.55;;
47804;SDS011;33568;45.286;9.900;2023-03-01T17:19:23;51.75;;;43.15;;
47804;SDS011;33568;45.286;9.900;2023-03-01T17:21:49;30.02;;;24.20;;
47804;SDS011;33568;45.286;9.900;2023-03-01T17:24:15;28.17;;;22.25;;
47804;SDS011;33568;45.286;9.900;2023-03-01T17:27:00;36.33;;;29.80;;
47804;SDS011;33568;45.286;9.900;2023-03-01T17:31:53;95.50;;;63.72;;
47804;SDS011;33568;45.286;9.900;2023-03-01T17:34:21;85.72;;;56.25;;
47804;SDS011;33568;45.286;9.900;2023-03-01T17:36:48;45.20;;;37.22;;
47804;SDS011;33568;45.286;9.900;2023-03-01T17:39:17;27.38;;;24.33;;
47804;SDS011;33568;45.286;9.900;2023-03-01T17:41:51;30.50;;;24.52;;
47804;SDS011;33568;45.286;9.900;2023-03-01T17:44:17;31.60;;;25.55;;
47804;SDS011;33568;45.286;9.900;2023-03-01T17:46:44;33.53;;;26.05;;
47804;SDS011;33568;45.286;9.900;2023-03-01T17:49:29;26.52;;;20.40;;
47804;SDS011;33568;45.286;9.900;2023-03-01T17:51:56;27.48;;;20.80;;
47804;SDS011;33568;45.286;9.900;2023-03-01T17:56:49;21.98;;;17.48;;
47804;SDS011;33568;45.286;9.900;2023-03-01T17:59:16;25.20;;;18.95;;
47804;SDS011;33568;45.286;9.900;2023-03-01T18:02:01;19.77;;;15.25;;
47804;SDS011;33568;45.286;9.900;2023-03-01T18:04:28;16.20;;;13.20;;
47804;SDS011;33568;45.286;9.900;2023-03-01T18:06:55;12.57;;;10.85;;
47804;SDS011;33568;45.286;9.900;2023-03-01T18:09:21;13.57;;;11.93;;
47804;SDS011;33568;45.286;9.900;2023-03-01T18:11:48;19.77;;;15.15;;
47804;SDS011;33568;45.286;9.900;2023-03-01T18:14:33;17.20;;;14.98;;
47804;SDS011;33568;45.286;9.900;2023-03-01T18:19:28;18.30;;;16.33;;
47804;SDS011;33568;45.286;9.900;2023-03-01T18:22:13;19.13;;;14.95;;
47804;SDS011;33568;45.286;9.900;2023-03-01T18:24:40;26.67;;;19.98;;
47804;SDS011;33568;45.286;9.900;2023-03-01T18:27:08;29.65;;;23.58;;
47804;SDS011;33568;45.286;9.900;2023-03-01T18:29:35;21.50;;;18.33;;
47804;SDS011;33568;45.286;9.900;2023-03-01T18:32:21;21.33;;;16.40;;
47804;SDS011;33568;45.286;9.900;2023-03-01T18:34:48;25.27;;;20.35;;